sensor_id;sensor_type;location;lat;lon;timestamp;P1;durP1;ratioP1;P2;durP2;ratioP2
12141;SDS011;6134;59.284;18.022;2023-02-24T00:01:53;4.70;;;3.47;;
12141;SDS011;6134;59.284;18.022;2023-02-24T00:04:27;4.85;;;3.70;;
12141;SDS011;6134;59.284;18.022;2023-02-24T00:06:57;4.75;;;3.38;;
12141;SDS011;6134;59.284;18.022;2023-02-24T00:09:27;3.88;;;3.55;;
12141;SDS011;6134;59.284;18.022;2023-02-24T00:11:56;4.30;;;3.20;;
12141;SDS011;6134;59.284;18.022;2023-02-24T00:14:27;4.10;;;3.70;;
12141;SDS011;6134;59.284;18.022;2023-02-24T00:16:56;3.80;;;3.38;;
12141;SDS011;6134;59.284;18.022;2023-02-24T00:19:26;4.35;;;3.90;;
12141;SDS011;6134;59.284;18.022;2023-02-24T00:21:59;4.15;;;3.75;;
12141;SDS011;6134;59.284;18.022;2023-02-24T00:24:28;4.03;;;3.63;;
12141;SDS011;6134;59.284;18.022;2023-02-24T00:26:58;4.45;;;4.05;;
12141;SDS011;6134;59.284;18.022;2023-02-24T00:29:28;4.50;;;3.90;;
12141;SDS011;6134;59.284;18.022;2023-02-24T00:31:58;4.57;;;3.45;;
12141;SDS011;6134;59.284;18.022;2023-02-24T00:34:29;4.72;;;4.13;;
12141;SDS011;6134;59.284;18.022;2023-02-24T00:37:00;4.25;;;3.85;;
12141;SDS011;6134;59.284;18.022;2023-02-24T00:39:32;4.40;;;4.00;;
12141;SDS011;6134;59.284;18.022;2023-02-24T00:42:02;4.55;;;4.15;;
12141;SDS011;6134;59.284;18.022;2023-02-24T00:44:34;4.65;;;3.67;;
12141;SDS011;6134;59.284;18.022;2023-02-24T00:47:03;5.28;;;4.10;;
12141;SDS011;6134;59.284;18.022;2023-02-24T00:49:33;4.35;;;3.55;;
12141;SDS011;6134;59.284;18.022;2023-02-24T00:52:09;5.25;;;4.05;;
12141;SDS011;6134;59.284;18.022;2023-02-24T00:54:39;4.90;;;4.22;;
12141;SDS011;6134;59.284;18.022;2023-02-24T00:57:08;4.45;;;4.05;;
12141;SDS011;6134;59.284;18.022;2023-02-24T00:59:37;5.00;;;4.40;;
12141;SDS011;6134;59.284;18.022;2023-02-24T01:02:06;4.72;;;4.15;;
12141;SDS011;6134;59.284;18.022;2023-02-24T01:04:36;4.90;;;4.40;;
12141;SDS011;6134;59.284;18.022;2023-02-24T01:07:05;5.53;;;4.50;;
12141;SDS011;6134;59.284;18.022;2023-02-24T01:09:38;5.50;;;4.57;;
12141;SDS011;6134;59.284;18.022;2023-02-24T01:12:08;4.35;;;3.95;;
12141;SDS011;6134;59.284;18.022;2023-02-24T01:14:54;4.90;;;4.13;;
12141;SDS011;6134;59.284;18.022;2023-02-24T01:17:23;4.90;;;4.30;;
12141;SDS011;6134;59.284;18.022;2023-02-24T01:19:52;4.85;;;4.13;;
12141;SDS011;6134;59.284;18.022;2023-02-24T01:22:25;5.22;;;4.68;;
12141;SDS011;6134;59.284;18.022;2023-02-24T01:24:56;4.70;;;4.30;;
12141;SDS011;6134;59.284;18.022;2023-02-24T01:27:24;5.43;;;4.93;;
12141;SDS011;6134;59.284;18.022;2023-02-24T01:29:53;5.50;;;4.90;;
12141;SDS011;6134;59.284;18.022;2023-02-24T01:32:22;5.22;;;4.72;;
12141;SDS011;6134;59.284;18.022;2023-02-24T01:34:54;5.93;;;5.32;;
12141;SDS011;6134;59.284;18.022;2023-02-24T01:37:23;6.63;;;4.90;;
12141;SDS011;6134;59.284;18.022;2023-02-24T01:39:52;5.32;;;4.82;;
12141;SDS011;6134;59.284;18.022;2023-02-24T01:42:22;5.38;;;4.88;;
12141;SDS011;6134;59.284;18.022;2023-02-24T01:47:46;6.22;;;5.35;;
12141;SDS011;6134;59.284;18.022;2023-02-24T01:50:16;5.57;;;5.03;;
12141;SDS011;6134;59.284;18.022;2023-02-24T01:52:47;7.18;;;5.45;;
12141;SDS011;6134;59.284;18.022;2023-02-24T01:55:17;5.30;;;4.85;;
12141;SDS011;6134;59.284;18.022;2023-02-24T01:57:50;6.03;;;4.97;;
12141;SDS011;6134;59.284;18.022;2023-02-24T02:00:21;5.53;;;4.93;;
12141;SDS011;6134;59.284;18.022;2023-02-24T02:03:08;5.10;;;4.60;;
12141;SDS011;6134;59.284;18.022;2023-02-24T02:05:39;5.95;;;5.00;;
12141;SDS011;6134;59.284;18.022;2023-02-24T02:08:08;5.82;;;5.15;;
12141;SDS011;6134;59.284;18.022;2023-02-24T02:10:38;5.47;;;4.80;;
12141;SDS011;6134;59.284;18.022;2023-02-24T02:13:11;5.72;;;5.13;;
12141;SDS011;6134;59.284;18.022;2023-02-24T02:15:44;5.38;;;4.70;;
12141;SDS011;6134;59.284;18.022;2023-02-24T02:18:16;6.45;;;5.35;;
12141;SDS011;6134;59.284;18.022;2023-02-24T02:23:47;4.28;;;3.88;;
12141;SDS011;6134;59.284;18.022;2023-02-24T02:29:19;4.78;;;4.00;;
12141;SDS011;6134;59.284;18.022;2023-02-24T02:32:05;5.80;;;4.70;;
12141;SDS011;6134;59.284;18.022;2023-02-24T02:34:40;5.15;;;4.50;;
12141;SDS011;6134;59.284;18.022;2023-02-24T02:37:11;4.03;;;3.13;;
12141;SDS011;6134;59.284;18.022;2023-02-24T02:39:44;5.15;;;3.60;;
12141;SDS011;6134;59.284;18.022;2023-02-24T02:42:19;4.38;;;3.80;;
12141;SDS011;6134;59.284;18.022;2023-02-24T02:44:50;4.43;;;3.90;;
12141;SDS011;6134;59.284;18.022;2023-02-24T02:47:23;4.35;;;3.95;;
12141;SDS011;6134;59.284;18.022;2023-02-24T02:49:56;4.80;;;4.30;;
12141;SDS011;6134;59.284;18.022;2023-02-24T02:52:27;4.20;;;3.80;;
12141;SDS011;6134;59.284;18.022;2023-02-24T02:54:58;4.32;;;3.47;;
12141;SDS011;6134;59.284;18.022;2023-02-24T02:57:30;5.05;;;4.55;;
12141;SDS011;6134;59.284;18.022;2023-02-24T03:00:00;4.57;;;4.18;;
12141;SDS011;6134;59.284;18.022;2023-02-24T03:02:39;4.70;;;4.22;;
12141;SDS011;6134;59.284;18.022;2023-02-24T03:05:11;4.35;;;3.95;;
12141;SDS011;6134;59.284;18.022;2023-02-24T03:07:47;4.38;;;3.97;;
12141;SDS011;6134;59.284;18.022;2023-02-24T03:10:21;4.50;;;3.95;;
12141;SDS011;6134;59.284;18.022;2023-02-24T03:12:50;5.53;;;4.70;;
12141;SDS011;6134;59.284;18.022;2023-02-24T03:15:22;4.90;;;4.18;;
12141;SDS011;6134;59.284;18.022;2023-02-24T03:17:52;4.78;;;4.28;;
12141;SDS011;6134;59.284;18.022;2023-02-24T03:20:23;4.97;;;4.38;;
12141;SDS011;6134;59.284;18.022;2023-02-24T03:22:58;5.30;;;4.70;;
12141;SDS011;6134;59.284;18.022;2023-02-24T03:25:31;5.22;;;4.68;;
12141;SDS011;6134;59.284;18.022;2023-02-24T03:28:06;6.93;;;5.35;;
12141;SDS011;6134;59.284;18.022;2023-02-24T03:30:39;6.32;;;5.53;;
12141;SDS011;6134;59.284;18.022;2023-02-24T03:33:11;5.35;;;4.82;;
12141;SDS011;6134;59.284;18.022;2023-02-24T03:35:45;5.65;;;4.80;;
12141;SDS011;6134;59.284;18.022;2023-02-24T03:38:17;4.57;;;4.18;;
12141;SDS011;6134;59.284;18.022;2023-02-24T03:40:50;6.20;;;4.65;;
12141;SDS011;6134;59.284;18.022;2023-02-24T03:43:26;5.03;;;4.40;;
12141;SDS011;6134;59.284;18.022;2023-02-24T03:45:57;5.05;;;4.55;;
12141;SDS011;6134;59.284;18.022;2023-02-24T03:48:28;6.35;;;4.60;;
12141;SDS011;6134;59.284;18.022;2023-02-24T03:50:59;5.57;;;4.63;;
12141;SDS011;6134;59.284;18.022;2023-02-24T03:53:49;5.82;;;4.53;;
12141;SDS011;6134;59.284;18.022;2023-02-24T03:56:26;5.75;;;4.93;;
12141;SDS011;6134;59.284;18.022;2023-02-24T03:59:01;4.72;;;4.25;;
12141;SDS011;6134;59.284;18.022;2023-02-24T04:01:33;5.40;;;4.22;;
12141;SDS011;6134;59.284;18.022;2023-02-24T04:04:04;5.15;;;4.63;;
12141;SDS011;6134;59.284;18.022;2023-02-24T04:06:47;5.07;;;4.18;;
12141;SDS011;6134;59.284;18.022;2023-02-24T04:09:23;4.60;;;4.15;;
12141;SDS011;6134;59.284;18.022;2023-02-24T04:12:05;4.78;;;4.20;;
12141;SDS011;6134;59.284;18.022;2023-02-24T04:14:38;5.07;;;4.47;;
12141;SDS011;6134;59.284;18.022;2023-02-24T04:17:11;6.20;;;4.80;;
12141;SDS011;6134;59.284;18.022;2023-02-24T04:19:47;5.75;;;5.15;;
12141;SDS011;6134;59.284;18.022;2023-02-24T04:22:19;6.07;;;5.47;;
12141;SDS011;6134;59.284;18.022;2023-02-24T04:24:51;6.10;;;5.50;;
12141;SDS011;6134;59.284;18.022;2023-02-24T04:27:21;6.55;;;5.40;;
12141;SDS011;6134;59.284;18.022;2023-02-24T04:29:55;6.30;;;5.70;;
12141;SDS011;6134;59.284;18.022;2023-02-24T04:32:28;6.95;;;5.65;;
12141;SDS011;6134;59.284;18.022;2023-02-24T04:35:02;7.00;;;5.82;;
12141;SDS011;6134;59.284;18.022;2023-02-24T04:37:34;6.43;;;5.50;;
12141;SDS011;6134;59.284;18.022;2023-02-24T04:40:05;7.03;;;5.45;;
12141;SDS011;6134;59.284;18.022;2023-02-24T04:42:38;6.75;;;5.40;;
12141;SDS011;6134;59.284;18.022;2023-02-24T04:45:12;5.80;;;5.20;;
12141;SDS011;6134;59.284;18.022;2023-02-24T04:47:42;6.93;;;6.03;;
12141;SDS011;6134;59.284;18.022;2023-02-24T04:50:16;5.95;;;5.35;;
12141;SDS011;6134;59.284;18.022;2023-02-24T04:52:51;5.55;;;4.55;;
12141;SDS011;6134;59.284;18.022;2023-02-24T04:55:21;5.43;;;4.85;;
12141;SDS011;6134;59.284;18.022;2023-02-24T04:57:54;6.13;;;5.07;;
12141;SDS011;6134;59.284;18.022;2023-02-24T05:00:23;6.47;;;4.95;;
12141;SDS011;6134;59.284;18.022;2023-02-24T05:02:53;5.95;;;4.45;;
12141;SDS011;6134;59.284;18.022;2023-02-24T05:05:23;5.10;;;4.60;;
12141;SDS011;6134;59.284;18.022;2023-02-24T05:07:55;5.53;;;4.70;;
12141;SDS011;6134;59.284;18.022;2023-02-24T05:10:29;6.05;;;4.63;;
12141;SDS011;6134;59.284;18.022;2023-02-24T05:12:58;7.13;;;5.20;;
12141;SDS011;6134;59.284;18.022;2023-02-24T05:15:28;5.25;;;4.55;;
12141;SDS011;6134;59.284;18.022;2023-02-24T05:17:58;6.45;;;4.40;;
12141;SDS011;6134;59.284;18.022;2023-02-24T05:20:28;5.80;;;4.82;;
12141;SDS011;6134;59.284;18.022;2023-02-24T05:23:15;6.75;;;5.75;;
12141;SDS011;6134;59.284;18.022;2023-02-24T05:25:44;7.88;;;6.10;;
12141;SDS011;6134;59.284;18.022;2023-02-24T05:28:14;5.82;;;5.00;;
12141;SDS011;6134;59.284;18.022;2023-02-24T05:30:42;5.75;;;4.45;;
12141;SDS011;6134;59.284;18.022;2023-02-24T05:33:11;5.53;;;4.72;;
12141;SDS011;6134;59.284;18.022;2023-02-24T05:35:40;5.85;;;4.40;;
12141;SDS011;6134;59.284;18.022;2023-02-24T05:38:09;5.32;;;4.50;;
12141;SDS011;6134;59.284;18.022;2023-02-24T05:40:40;5.13;;;4.32;;
12141;SDS011;6134;59.284;18.022;2023-02-24T05:43:12;5.75;;;5.03;;
12141;SDS011;6134;59.284;18.022;2023-02-24T05:45:43;6.10;;;4.90;;
12141;SDS011;6134;59.284;18.022;2023-02-24T05:48:12;6.82;;;4.93;;
12141;SDS011;6134;59.284;18.022;2023-02-24T05:50:41;5.75;;;4.57;;
12141;SDS011;6134;59.284;18.022;2023-02-24T05:53:20;5.22;;;4.72;;
12141;SDS011;6134;59.284;18.022;2023-02-24T05:55:51;4.80;;;4.30;;
12141;SDS011;6134;59.284;18.022;2023-02-24T05:58:19;5.00;;;4.43;;
12141;SDS011;6134;59.284;18.022;2023-02-24T06:00:50;5.10;;;4.60;;
12141;SDS011;6134;59.284;18.022;2023-02-24T06:03:19;4.65;;;4.00;;
12141;SDS011;6134;59.284;18.022;2023-02-24T06:05:56;3.78;;;3.35;;
12141;SDS011;6134;59.284;18.022;2023-02-24T06:08:31;3.33;;;3.03;;
12141;SDS011;6134;59.284;18.022;2023-02-24T06:11:09;3.70;;;3.40;;
12141;SDS011;6134;59.284;18.022;2023-02-24T06:13:38;3.03;;;2.72;;
12141;SDS011;6134;59.284;18.022;2023-02-24T06:16:10;3.92;;;3.22;;
12141;SDS011;6134;59.284;18.022;2023-02-24T06:18:40;3.08;;;2.78;;
12141;SDS011;6134;59.284;18.022;2023-02-24T06:21:09;5.35;;;2.80;;
12141;SDS011;6134;59.284;18.022;2023-02-24T06:23:39;3.33;;;3.03;;
12141;SDS011;6134;59.284;18.022;2023-02-24T06:26:09;2.95;;;2.67;;
12141;SDS011;6134;59.284;18.022;2023-02-24T06:28:50;3.05;;;2.75;;
12141;SDS011;6134;59.284;18.022;2023-02-24T06:31:20;3.17;;;2.70;;
12141;SDS011;6134;59.284;18.022;2023-02-24T06:33:50;2.97;;;2.38;;
12141;SDS011;6134;59.284;18.022;2023-02-24T06:36:18;2.85;;;2.50;;
12141;SDS011;6134;59.284;18.022;2023-02-24T06:38:47;2.30;;;2.10;;
12141;SDS011;6134;59.284;18.022;2023-02-24T06:41:19;3.08;;;2.15;;
12141;SDS011;6134;59.284;18.022;2023-02-24T06:43:48;2.55;;;2.33;;
12141;SDS011;6134;59.284;18.022;2023-02-24T06:46:18;2.58;;;2.38;;
12141;SDS011;6134;59.284;18.022;2023-02-24T06:48:47;2.80;;;2.60;;
12141;SDS011;6134;59.284;18.022;2023-02-24T06:51:16;2.58;;;2.30;;
12141;SDS011;6134;59.284;18.022;2023-02-24T06:53:45;3.03;;;2.60;;
12141;SDS011;6134;59.284;18.022;2023-02-24T06:56:15;2.60;;;2.28;;
12141;SDS011;6134;59.284;18.022;2023-02-24T06:58:47;2.75;;;2.28;;
12141;SDS011;6134;59.284;18.022;2023-02-24T07:01:23;2.40;;;2.17;;
12141;SDS011;6134;59.284;18.022;2023-02-24T07:03:54;2.53;;;2.33;;
12141;SDS011;6134;59.284;18.022;2023-02-24T07:06:49;3.28;;;2.13;;
12141;SDS011;6134;59.284;18.022;2023-02-24T07:09:19;2.20;;;2.00;;
12141;SDS011;6134;59.284;18.022;2023-02-24T07:11:51;2.65;;;2.20;;
12141;SDS011;6134;59.284;18.022;2023-02-24T07:14:23;3.85;;;3.00;;
12141;SDS011;6134;59.284;18.022;2023-02-24T07:16:53;5.20;;;2.50;;
12141;SDS011;6134;59.284;18.022;2023-02-24T07:19:25;3.67;;;2.20;;
12141;SDS011;6134;59.284;18.022;2023-02-24T07:21:55;2.55;;;2.10;;
12141;SDS011;6134;59.284;18.022;2023-02-24T07:24:26;3.33;;;2.47;;
12141;SDS011;6134;59.284;18.022;2023-02-24T07:27:03;2.58;;;2.38;;
12141;SDS011;6134;59.284;18.022;2023-02-24T07:29:34;4.10;;;2.28;;
12141;SDS011;6134;59.284;18.022;2023-02-24T07:32:03;2.40;;;2.17;;
12141;SDS011;6134;59.284;18.022;2023-02-24T07:34:34;2.47;;;2.20;;
12141;SDS011;6134;59.284;18.022;2023-02-24T07:37:06;2.08;;;1.88;;
12141;SDS011;6134;59.284;18.022;2023-02-24T07:39:35;2.55;;;2.13;;
12141;SDS011;6134;59.284;18.022;2023-02-24T07:42:05;2.25;;;2.05;;
12141;SDS011;6134;59.284;18.022;2023-02-24T07:44:43;2.20;;;2.00;;
12141;SDS011;6134;59.284;18.022;2023-02-24T07:47:14;2.97;;;2.08;;
12141;SDS011;6134;59.284;18.022;2023-02-24T07:49:43;2.20;;;2.00;;
12141;SDS011;6134;59.284;18.022;2023-02-24T07:52:12;2.10;;;1.75;;
12141;SDS011;6134;59.284;18.022;2023-02-24T07:54:41;3.25;;;2.13;;
12141;SDS011;6134;59.284;18.022;2023-02-24T07:57:10;2.00;;;1.80;;
12141;SDS011;6134;59.284;18.022;2023-02-24T07:59:40;2.13;;;1.90;;
12141;SDS011;6134;59.284;18.022;2023-02-24T08:02:14;2.00;;;1.77;;
12141;SDS011;6134;59.284;18.022;2023-02-24T08:04:44;2.20;;;2.00;;
12141;SDS011;6134;59.284;18.022;2023-02-24T08:07:17;2.63;;;2.22;;
12141;SDS011;6134;59.284;18.022;2023-02-24T08:09:50;2.28;;;2.08;;
12141;SDS011;6134;59.284;18.022;2023-02-24T08:12:50;2.35;;;2.03;;
12141;SDS011;6134;59.284;18.022;2023-02-24T08:15:21;2.13;;;1.92;;
12141;SDS011;6134;59.284;18.022;2023-02-24T08:17:53;2.47;;;2.10;;
12141;SDS011;6134;59.284;18.022;2023-02-24T08:20:25;2.63;;;1.98;;
12141;SDS011;6134;59.284;18.022;2023-02-24T08:22:55;2.40;;;2.20;;
12141;SDS011;6134;59.284;18.022;2023-02-24T08:25:25;2.50;;;1.95;;
12141;SDS011;6134;59.284;18.022;2023-02-24T08:28:01;2.83;;;1.90;;
12141;SDS011;6134;59.284;18.022;2023-02-24T08:30:35;2.20;;;2.00;;
12141;SDS011;6134;59.284;18.022;2023-02-24T08:33:08;2.00;;;1.80;;
12141;SDS011;6134;59.284;18.022;2023-02-24T08:35:41;2.60;;;2.13;;
12141;SDS011;6134;59.284;18.022;2023-02-24T08:38:12;2.10;;;1.90;;
12141;SDS011;6134;59.284;18.022;2023-02-24T08:40:42;2.03;;;1.67;;
12141;SDS011;6134;59.284;18.022;2023-02-24T08:43:18;2.92;;;1.80;;
12141;SDS011;6134;59.284;18.022;2023-02-24T08:45:57;2.28;;;1.90;;
12141;SDS011;6134;59.284;18.022;2023-02-24T08:48:29;2.20;;;2.00;;
12141;SDS011;6134;59.284;18.022;2023-02-24T08:51:06;2.47;;;2.00;;
12141;SDS011;6134;59.284;18.022;2023-02-24T08:53:35;1.90;;;1.70;;
12141;SDS011;6134;59.284;18.022;2023-02-24T08:56:07;2.30;;;2.10;;
12141;SDS011;6134;59.284;18.022;2023-02-24T08:58:37;1.90;;;1.65;;
12141;SDS011;6134;59.284;18.022;2023-02-24T09:01:14;4.65;;;4.10;;
12141;SDS011;6134;59.284;18.022;2023-02-24T09:03:52;3.15;;;2.20;;
12141;SDS011;6134;59.284;18.022;2023-02-24T09:06:22;3.17;;;1.98;;
12141;SDS011;6134;59.284;18.022;2023-02-24T09:08:52;2.30;;;2.10;;
12141;SDS011;6134;59.284;18.022;2023-02-24T09:11:38;2.28;;;1.90;;
12141;SDS011;6134;59.284;18.022;2023-02-24T09:14:10;2.20;;;2.00;;
12141;SDS011;6134;59.284;18.022;2023-02-24T09:16:52;2.72;;;1.95;;
12141;SDS011;6134;59.284;18.022;2023-02-24T09:19:38;1.73;;;1.63;;
12141;SDS011;6134;59.284;18.022;2023-02-24T09:22:28;2.55;;;1.70;;
12141;SDS011;6134;59.284;18.022;2023-02-24T09:25:14;2.50;;;1.70;;
12141;SDS011;6134;59.284;18.022;2023-02-24T09:27:50;1.80;;;1.58;;
12141;SDS011;6134;59.284;18.022;2023-02-24T09:30:23;1.90;;;1.80;;
12141;SDS011;6134;59.284;18.022;2023-02-24T09:33:05;2.42;;;1.80;;
12141;SDS011;6134;59.284;18.022;2023-02-24T09:35:35;2.38;;;1.98;;
12141;SDS011;6134;59.284;18.022;2023-02-24T09:38:07;1.60;;;1.50;;
12141;SDS011;6134;59.284;18.022;2023-02-24T09:40:37;2.20;;;1.90;;
12141;SDS011;6134;59.284;18.022;2023-02-24T09:43:15;2.30;;;1.90;;
12141;SDS011;6134;59.284;18.022;2023-02-24T09:45:45;2.72;;;2.17;;
12141;SDS011;6134;59.284;18.022;2023-02-24T09:48:23;1.92;;;1.60;;
12141;SDS011;6134;59.284;18.022;2023-02-24T09:50:56;4.43;;;1.65;;
12141;SDS011;6134;59.284;18.022;2023-02-24T09:53:31;2.42;;;1.45;;
12141;SDS011;6134;59.284;18.022;2023-02-24T09:56:10;1.98;;;1.67;;
12141;SDS011;6134;59.284;18.022;2023-02-24T09:58:43;1.50;;;1.40;;
12141;SDS011;6134;59.284;18.022;2023-02-24T10:04:01;3.13;;;1.27;;
12141;SDS011;6134;59.284;18.022;2023-02-24T10:06:48;1.30;;;1.20;;
12141;SDS011;6134;59.284;18.022;2023-02-24T10:09:18;2.72;;;1.60;;
12141;SDS011;6134;59.284;18.022;2023-02-24T10:11:50;1.77;;;1.48;;
12141;SDS011;6134;59.284;18.022;2023-02-24T10:14:26;2.80;;;1.75;;
12141;SDS011;6134;59.284;18.022;2023-02-24T10:17:09;2.40;;;1.60;;
12141;SDS011;6134;59.284;18.022;2023-02-24T10:19:53;2.05;;;1.50;;
12141;SDS011;6134;59.284;18.022;2023-02-24T10:22:29;1.98;;;1.70;;
12141;SDS011;6134;59.284;18.022;2023-02-24T10:25:13;3.42;;;1.65;;
12141;SDS011;6134;59.284;18.022;2023-02-24T10:27:51;1.70;;;1.33;;
12141;SDS011;6134;59.284;18.022;2023-02-24T10:33:13;1.63;;;1.50;;
12141;SDS011;6134;59.284;18.022;2023-02-24T10:35:46;2.38;;;1.77;;
12141;SDS011;6134;59.284;18.022;2023-02-24T10:38:17;1.42;;;1.25;;
12141;SDS011;6134;59.284;18.022;2023-02-24T10:40:47;1.40;;;1.30;;
12141;SDS011;6134;59.284;18.022;2023-02-24T10:43:22;3.97;;;1.60;;
12141;SDS011;6134;59.284;18.022;2023-02-24T10:45:57;1.70;;;1.55;;
12141;SDS011;6134;59.284;18.022;2023-02-24T10:48:33;2.78;;;1.35;;
12141;SDS011;6134;59.284;18.022;2023-02-24T10:51:12;1.60;;;1.10;;
12141;SDS011;6134;59.284;18.022;2023-02-24T10:53:50;1.58;;;1.13;;
12141;SDS011;6134;59.284;18.022;2023-02-24T10:56:38;1.38;;;1.10;;
12141;SDS011;6134;59.284;18.022;2023-02-24T10:59:20;2.60;;;1.38;;
12141;SDS011;6134;59.284;18.022;2023-02-24T11:02:24;1.88;;;1.20;;
12141;SDS011;6134;59.284;18.022;2023-02-24T11:04:59;1.08;;;0.90;;
12141;SDS011;6134;59.284;18.022;2023-02-24T11:07:50;1.52;;;0.77;;
12141;SDS011;6134;59.284;18.022;2023-02-24T11:10:35;1.23;;;0.90;;
12141;SDS011;6134;59.284;18.022;2023-02-24T11:13:18;1.48;;;1.10;;
12141;SDS011;6134;59.284;18.022;2023-02-24T11:16:06;3.40;;;0.90;;
12141;SDS011;6134;59.284;18.022;2023-02-24T11:18:53;1.88;;;0.90;;
12141;SDS011;6134;59.284;18.022;2023-02-24T11:21:23;2.22;;;1.00;;
12141;SDS011;6134;59.284;18.022;2023-02-24T11:23:55;1.58;;;0.90;;
12141;SDS011;6134;59.284;18.022;2023-02-24T11:26:30;1.80;;;0.80;;
12141;SDS011;6134;59.284;18.022;2023-02-24T11:29:02;0.95;;;0.85;;
12141;SDS011;6134;59.284;18.022;2023-02-24T11:31:41;2.17;;;0.80;;
12141;SDS011;6134;59.284;18.022;2023-02-24T11:34:15;1.65;;;0.95;;
12141;SDS011;6134;59.284;18.022;2023-02-24T11:36:52;3.45;;;1.08;;
12141;SDS011;6134;59.284;18.022;2023-02-24T11:39:29;3.00;;;1.17;;
12141;SDS011;6134;59.284;18.022;2023-02-24T11:42:01;1.95;;;1.00;;
12141;SDS011;6134;59.284;18.022;2023-02-24T11:44:32;0.95;;;0.93;;
12141;SDS011;6134;59.284;18.022;2023-02-24T11:47:04;1.10;;;1.00;;
12141;SDS011;6134;59.284;18.022;2023-02-24T11:49:37;1.73;;;0.95;;
12141;SDS011;6134;59.284;18.022;2023-02-24T11:52:09;2.00;;;1.15;;
12141;SDS011;6134;59.284;18.022;2023-02-24T11:54:42;1.58;;;1.10;;
12141;SDS011;6134;59.284;18.022;2023-02-24T11:57:14;2.28;;;1.30;;
12141;SDS011;6134;59.284;18.022;2023-02-24T11:59:45;2.95;;;1.00;;
12141;SDS011;6134;59.284;18.022;2023-02-24T12:02:17;1.58;;;1.00;;
12141;SDS011;6134;59.284;18.022;2023-02-24T12:04:49;1.85;;;1.10;;
12141;SDS011;6134;59.284;18.022;2023-02-24T12:07:23;1.05;;;0.90;;
12141;SDS011;6134;59.284;18.022;2023-02-24T12:09:57;1.10;;;1.00;;
12141;SDS011;6134;59.284;18.022;2023-02-24T12:12:45;1.58;;;0.80;;
12141;SDS011;6134;59.284;18.022;2023-02-24T12:15:17;1.60;;;0.82;;
12141;SDS011;6134;59.284;18.022;2023-02-24T12:17:50;1.17;;;0.80;;
12141;SDS011;6134;59.284;18.022;2023-02-24T12:20:26;2.35;;;1.10;;
12141;SDS011;6134;59.284;18.022;2023-02-24T12:22:56;1.48;;;1.10;;
12141;SDS011;6134;59.284;18.022;2023-02-24T12:25:26;1.17;;;0.80;;
12141;SDS011;6134;59.284;18.022;2023-02-24T12:28:00;2.35;;;0.80;;
12141;SDS011;6134;59.284;18.022;2023-02-24T12:30:39;1.98;;;0.90;;
12141;SDS011;6134;59.284;18.022;2023-02-24T12:33:19;1.00;;;0.90;;
12141;SDS011;6134;59.284;18.022;2023-02-24T12:35:54;2.42;;;1.17;;
12141;SDS011;6134;59.284;18.022;2023-02-24T12:38:33;2.50;;;1.05;;
12141;SDS011;6134;59.284;18.022;2023-02-24T12:41:10;2.53;;;1.10;;
12141;SDS011;6134;59.284;18.022;2023-02-24T12:43:45;0.93;;;0.80;;
12141;SDS011;6134;59.284;18.022;2023-02-24T12:46:18;1.80;;;0.93;;
12141;SDS011;6134;59.284;18.022;2023-02-24T12:51:36;1.33;;;0.88;;
12141;SDS011;6134;59.284;18.022;2023-02-24T12:54:12;2.33;;;1.27;;
12141;SDS011;6134;59.284;18.022;2023-02-24T12:56:45;1.38;;;1.00;;
12141;SDS011;6134;59.284;18.022;2023-02-24T12:59:22;2.67;;;0.95;;
12141;SDS011;6134;59.284;18.022;2023-02-24T13:01:54;0.90;;;0.80;;
12141;SDS011;6134;59.284;18.022;2023-02-24T13:04:36;1.20;;;0.82;;
12141;SDS011;6134;59.284;18.022;2023-02-24T13:07:08;1.38;;;0.90;;
12141;SDS011;6134;59.284;18.022;2023-02-24T13:09:41;1.52;;;1.17;;
12141;SDS011;6134;59.284;18.022;2023-02-24T13:12:15;0.82;;;0.80;;
12141;SDS011;6134;59.284;18.022;2023-02-24T13:14:46;2.35;;;1.20;;
12141;SDS011;6134;59.284;18.022;2023-02-24T13:17:18;2.20;;;1.23;;
12141;SDS011;6134;59.284;18.022;2023-02-24T13:19:47;2.63;;;1.05;;
12141;SDS011;6134;59.284;18.022;2023-02-24T13:22:24;1.10;;;1.00;;
12141;SDS011;6134;59.284;18.022;2023-02-24T13:24:54;1.52;;;0.82;;
12141;SDS011;6134;59.284;18.022;2023-02-24T13:27:24;1.65;;;0.98;;
12141;SDS011;6134;59.284;18.022;2023-02-24T13:29:56;1.55;;;0.90;;
12141;SDS011;6134;59.284;18.022;2023-02-24T13:32:27;1.58;;;1.02;;
12141;SDS011;6134;59.284;18.022;2023-02-24T13:34:58;1.50;;;1.05;;
12141;SDS011;6134;59.284;18.022;2023-02-24T13:37:28;1.65;;;0.80;;
12141;SDS011;6134;59.284;18.022;2023-02-24T13:39:57;1.98;;;1.35;;
12141;SDS011;6134;59.284;18.022;2023-02-24T13:42:26;4.45;;;1.30;;
12141;SDS011;6134;59.284;18.022;2023-02-24T13:45:03;3.65;;;1.27;;
12141;SDS011;6134;59.284;18.022;2023-02-24T13:47:46;4.45;;;1.48;;
12141;SDS011;6134;59.284;18.022;2023-02-24T13:50:24;2.53;;;1.10;;
12141;SDS011;6134;59.284;18.022;2023-02-24T13:53:01;3.05;;;1.00;;
12141;SDS011;6134;59.284;18.022;2023-02-24T13:55:38;1.77;;;1.17;;
12141;SDS011;6134;59.284;18.022;2023-02-24T13:58:17;4.43;;;1.30;;
12141;SDS011;6134;59.284;18.022;2023-02-24T14:00:54;1.65;;;1.20;;
12141;SDS011;6134;59.284;18.022;2023-02-24T14:03:26;3.13;;;1.40;;
12141;SDS011;6134;59.284;18.022;2023-02-24T14:05:55;4.80;;;1.50;;
12141;SDS011;6134;59.284;18.022;2023-02-24T14:08:26;4.68;;;1.48;;
12141;SDS011;6134;59.284;18.022;2023-02-24T14:10:57;2.88;;;1.50;;
12141;SDS011;6134;59.284;18.022;2023-02-24T14:13:29;2.88;;;1.33;;
12141;SDS011;6134;59.284;18.022;2023-02-24T14:16:03;2.85;;;1.02;;
12141;SDS011;6134;59.284;18.022;2023-02-24T14:18:33;2.50;;;1.13;;
12141;SDS011;6134;59.284;18.022;2023-02-24T14:21:03;1.95;;;1.25;;
12141;SDS011;6134;59.284;18.022;2023-02-24T14:23:32;2.53;;;1.63;;
12141;SDS011;6134;59.284;18.022;2023-02-24T14:26:03;3.63;;;1.95;;
12141;SDS011;6134;59.284;18.022;2023-02-24T14:28:34;3.83;;;1.52;;
12141;SDS011;6134;59.284;18.022;2023-02-24T14:31:10;2.92;;;1.40;;
12141;SDS011;6134;59.284;18.022;2023-02-24T14:33:40;2.10;;;1.20;;
12141;SDS011;6134;59.284;18.022;2023-02-24T14:36:12;2.22;;;1.08;;
12141;SDS011;6134;59.284;18.022;2023-02-24T14:38:42;3.78;;;1.38;;
12141;SDS011;6134;59.284;18.022;2023-02-24T14:41:16;1.85;;;1.23;;
12141;SDS011;6134;59.284;18.022;2023-02-24T14:43:46;2.63;;;1.30;;
12141;SDS011;6134;59.284;18.022;2023-02-24T14:46:16;3.20;;;1.10;;
12141;SDS011;6134;59.284;18.022;2023-02-24T14:48:54;2.85;;;1.23;;
12141;SDS011;6134;59.284;18.022;2023-02-24T14:51:24;1.98;;;1.20;;
12141;SDS011;6134;59.284;18.022;2023-02-24T14:53:55;4.07;;;1.77;;
12141;SDS011;6134;59.284;18.022;2023-02-24T14:56:26;5.38;;;1.75;;
12141;SDS011;6134;59.284;18.022;2023-02-24T14:58:56;3.25;;;1.15;;
12141;SDS011;6134;59.284;18.022;2023-02-24T15:01:30;2.55;;;1.20;;
12141;SDS011;6134;59.284;18.022;2023-02-24T15:04:00;2.65;;;1.20;;
12141;SDS011;6134;59.284;18.022;2023-02-24T15:06:39;3.65;;;1.40;;
12141;SDS011;6134;59.284;18.022;2023-02-24T15:09:10;2.38;;;1.00;;
12141;SDS011;6134;59.284;18.022;2023-02-24T15:11:40;2.72;;;1.05;;
12141;SDS011;6134;59.284;18.022;2023-02-24T15:14:15;1.95;;;1.00;;
12141;SDS011;6134;59.284;18.022;2023-02-24T15:16:48;3.70;;;1.20;;
12141;SDS011;6134;59.284;18.022;2023-02-24T15:19:23;1.92;;;0.93;;
12141;SDS011;6134;59.284;18.022;2023-02-24T15:21:52;1.70;;;1.15;;
12141;SDS011;6134;59.284;18.022;2023-02-24T15:24:24;1.67;;;1.02;;
12141;SDS011;6134;59.284;18.022;2023-02-24T15:26:53;2.72;;;0.90;;
12141;SDS011;6134;59.284;18.022;2023-02-24T15:29:23;2.85;;;1.35;;
12141;SDS011;6134;59.284;18.022;2023-02-24T15:31:54;4.22;;;1.48;;
12141;SDS011;6134;59.284;18.022;2023-02-24T15:34:25;2.45;;;1.30;;
12141;SDS011;6134;59.284;18.022;2023-02-24T15:36:55;1.85;;;1.20;;
12141;SDS011;6134;59.284;18.022;2023-02-24T15:39:26;2.15;;;1.00;;
12141;SDS011;6134;59.284;18.022;2023-02-24T15:42:04;1.27;;;1.10;;